Time;durP1;ratioP1;P1;durP2;ratioP2;P2;SDS_P1;SDS_P2;PMS_P1;PMS_P2;Temp;Humidity;BMP_temperature;BMP_pressure;BME280_temperature;BME280_humidity;BME280_pressure;Samples;Min_cycle;Max_cycle;Signal;HPM_P1;HPM_P2
2023/09/17 00:04:48;;;;;;;5.43;2.67;;;16.90;99.90;;;15.61;100.00;100461.00;9878028;29;98737;-88
2023/09/17 00:09:52;;;;;;;3.33;2.20;;;16.90;99.90;;;15.58;100.00;100460.53;9878765;29;96689;-88
2023/09/17 00:14:56;;;;;;;3.70;2.15;;;16.80;99.90;;;15.47;100.00;100451.16;9877081;29;96671;-88
2023/09/17 00:20:00;;;;;;;5.30;3.20;;;16.70;99.90;;;15.41;100.00;100452.78;9877414;29;97150;-88
2023/09/17 00:25:04;;;;;;;4.28;2.33;;;16.60;99.90;;;15.36;100.00;100443.69;9863250;29;97485;-88
2023/09/17 00:30:10;;;;;;;3.60;2.25;;;16.60;99.90;;;15.34;100.00;100438.50;9872900;29;98610;-88
2023/09/17 00:35:13;;;;;;;4.82;2.63;;;16.60;99.90;;;15.37;100.00;100442.66;9881277;29;98697;-88
2023/09/17 00:40:20;;;;;;;3.20;2.05;;;16.60;99.90;;;15.32;100.00;100432.53;9870251;29;96712;-88
2023/09/17 00:45:24;;;;;;;2.92;2.20;;;16.50;99.90;;;15.24;100.00;100421.97;9908347;29;98526;-88
2023/09/17 00:50:28;;;;;;;4.50;2.30;;;16.50;99.90;;;15.21;100.00;100425.00;9881773;29;96770;-88
2023/09/17 00:55:33;;;;;;;3.85;2.35;;;16.40;99.90;;;15.13;100.00;100425.97;9890785;29;96565;-88
2023/09/17 01:00:38;;;;;;;3.30;2.15;;;16.40;99.90;;;15.09;100.00;100415.84;9874698;29;96815;-88
2023/09/17 01:05:43;;;;;;;4.63;2.90;;;16.30;99.90;;;15.05;100.00;100417.22;9906771;29;96930;-88
2023/09/17 01:10:48;;;;;;;3.33;2.22;;;16.30;99.90;;;15.04;100.00;100423.59;9872690;29;96658;-88
2023/09/17 01:15:52;;;;;;;4.32;3.00;;;16.20;99.90;;;15.01;100.00;100421.31;9875844;29;98625;-89
2023/09/17 01:21:09;;;;;;;3.92;2.70;;;16.20;99.90;;;14.98;100.00;100427.88;9906715;29;96559;-88
2023/09/17 01:26:40;;;;;;;4.50;2.80;;;16.20;99.90;;;14.95;100.00;100426.41;9886046;29;96770;-88
2023/09/17 01:31:44;;;;;;;;;;;16.20;99.90;;;14.94;100.00;100411.38;9878592;29;96732;-89
2023/09/17 01:36:49;;;;;;;5.18;3.10;;;16.20;99.90;;;14.93;100.00;100403.53;9909062;29;96683;-88
2023/09/17 01:41:53;;;;;;;6.03;3.20;;;16.20;99.90;;;14.92;100.00;100407.22;9889362;29;96703;-88
2023/09/17 01:47:00;;;;;;;4.78;2.80;;;16.10;99.90;;;14.89;100.00;100399.59;9859184;29;96727;-88
2023/09/17 01:52:04;;;;;;;3.90;2.67;;;16.10;99.90;;;14.85;100.00;100392.97;9879318;29;98181;-88
2023/09/17 01:57:08;;;;;;;6.22;2.85;;;16.10;99.90;;;14.87;100.00;100390.91;9863567;29;96833;-88
2023/09/17 02:02:12;;;;;;;6.18;3.65;;;16.10;99.90;;;14.90;100.00;100401.25;9873304;29;96763;-87
2023/09/17 02:07:16;;;;;;;4.80;3.25;;;16.20;99.90;;;14.95;100.00;100393.47;9888319;29;96792;-87
2023/09/17 02:12:20;;;;;;;6.32;2.83;;;16.20;99.90;;;14.97;100.00;100392.25;9864333;29;96616;-88
2023/09/17 02:17:23;;;;;;;5.07;3.20;;;16.20;99.90;;;14.94;100.00;100391.84;9922315;29;97065;-88
2023/09/17 02:22:27;;;;;;;4.65;2.95;;;16.20;99.90;;;14.93;100.00;100387.47;9878709;29;96727;-88
2023/09/17 02:27:32;;;;;;;3.80;2.58;;;16.20;99.90;;;14.97;100.00;100394.94;9903410;29;96906;-89
2023/09/17 02:32:37;;;;;;;5.57;3.10;;;16.20;99.90;;;14.95;100.00;100396.97;9871823;29;96813;-88
2023/09/17 02:37:41;;;;;;;4.30;3.00;;;16.20;99.90;;;14.94;100.00;100399.84;9872177;29;96671;-88
2023/09/17 02:42:45;;;;;;;3.35;2.20;;;16.20;99.90;;;14.95;100.00;100399.66;9903227;29;97619;-88
2023/09/17 02:47:50;;;;;;;3.67;2.55;;;16.20;99.90;;;14.95;100.00;100396.97;9856419;29;97049;-88
2023/09/17 02:52:53;;;;;;;5.05;3.33;;;16.20;99.90;;;14.92;100.00;100397.34;9905482;29;96679;-88
2023/09/17 02:57:57;;;;;;;3.30;2.25;;;16.20;99.90;;;14.86;100.00;100405.31;9876214;29;96531;-88
2023/09/17 03:03:01;;;;;;;4.18;2.45;;;16.10;99.90;;;14.78;100.00;100410.81;9880721;29;96669;-88
2023/09/17 03:08:09;;;;;;;4.95;2.63;;;16.10;99.90;;;14.69;100.00;100407.41;9913147;29;96813;-87
2023/09/17 03:13:14;;;;;;;5.68;2.60;;;16.00;99.90;;;14.59;100.00;100402.38;9914044;29;97429;-88
2023/09/17 03:18:18;;;;;;;4.90;2.97;;;15.80;99.90;;;14.58;100.00;100413.28;9868918;29;97052;-88
2023/09/17 03:23:22;;;;;;;4.97;2.67;;;15.80;99.90;;;14.52;100.00;100404.16;9869897;29;97642;-88
2023/09/17 03:28:27;;;;;;;4.85;2.90;;;15.70;99.90;;;14.52;100.00;100396.13;9885725;29;96551;-87
2023/09/17 03:33:31;;;;;;;5.05;2.90;;;15.70;99.90;;;14.45;100.00;100385.34;9875408;29;98031;-87
2023/09/17 03:38:35;;;;;;;3.83;2.60;;;15.70;99.90;;;14.47;100.00;100389.69;9893196;29;97790;-88
2023/09/17 03:43:39;;;;;;;3.70;2.47;;;15.70;99.90;;;14.50;100.00;100391.97;9890819;29;98315;-88
2023/09/17 03:48:42;;;;;;;5.65;3.67;;;15.70;99.90;;;14.51;100.00;100386.44;9851426;29;96943;-88
2023/09/17 03:53:46;;;;;;;4.88;2.92;;;15.80;99.90;;;14.53;100.00;100399.63;9879963;29;96611;-88
2023/09/17 03:58:51;;;;;;;4.60;2.80;;;15.80;99.90;;;14.51;100.00;100394.44;9906554;29;96685;-88
2023/09/17 04:03:54;;;;;;;4.78;2.97;;;15.80;99.90;;;14.50;100.00;100392.78;9870803;29;98608;-87
2023/09/17 04:08:59;;;;;;;3.80;2.33;;;15.80;99.90;;;14.48;100.00;100392.16;9877922;29;97824;-88
2023/09/17 04:14:04;;;;;;;3.97;2.70;;;15.70;99.90;;;14.42;100.00;100395.56;9879984;29;96686;-88
2023/09/17 04:19:08;;;;;;;6.15;2.85;;;15.70;99.90;;;14.39;100.00;100401.28;9864238;29;96754;-88
2023/09/17 04:24:12;;;;;;;4.22;2.70;;;15.70;99.90;;;14.35;100.00;100402.69;9874393;29;96821;-89
2023/09/17 04:29:15;;;;;;;5.28;3.40;;;15.60;99.90;;;14.31;100.00;100417.44;9869667;29;96751;-88
2023/09/17 04:34:20;;;;;;;5.38;2.85;;;15.60;99.90;;;14.27;100.00;100416.97;9860988;29;96673;-89
2023/09/17 04:39:24;;;;;;;4.18;2.97;;;15.60;99.90;;;14.30;100.00;100426.47;9863892;29;98189;-88
2023/09/17 04:44:28;;;;;;;4.75;2.88;;;15.60;99.90;;;14.31;100.00;100436.97;9880263;29;97313;-88
2023/09/17 04:49:32;;;;;;;4.82;2.80;;;15.60;99.90;;;14.33;100.00;100442.13;9871470;29;97509;-88
2023/09/17 04:54:38;;;;;;;5.07;2.90;;;15.60;99.90;;;14.33;100.00;100440.28;9891218;29;96579;-89
2023/09/17 04:59:42;;;;;;;4.97;2.72;;;15.70;99.90;;;14.33;100.00;100442.94;9864641;29;97017;-88
2023/09/17 05:04:46;;;;;;;6.72;2.92;;;15.60;99.90;;;14.37;100.00;100448.75;9877549;29;96765;-87
2023/09/17 05:09:49;;;;;;;3.90;2.72;;;15.60;99.90;;;14.42;100.00;100451.72;9898624;29;96475;-88
2023/09/17 05:14:53;;;;;;;4.47;2.78;;;15.70;99.90;;;14.50;100.00;100448.13;9919563;29;96751;-88
2023/09/17 05:19:57;;;;;;;4.75;2.92;;;15.80;99.90;;;14.58;100.00;100453.38;9903324;29;99293;-90
2023/09/17 05:25:03;;;;;;;6.47;2.63;;;15.90;99.90;;;14.69;100.00;100464.44;9881758;29;98704;-89
2023/09/17 05:30:08;;;;;;;5.47;3.42;;;15.90;99.90;;;14.81;100.00;100462.06;9867778;29;97077;-89
2023/09/17 05:35:13;;;;;;;4.80;3.72;;;16.00;99.90;;;15.02;100.00;100463.13;9881558;29;96636;-90
2023/09/17 05:40:16;;;;;;;3.95;2.72;;;16.20;99.90;;;15.22;100.00;100459.59;9910300;29;96637;-90
2023/09/17 05:45:20;;;;;;;6.38;3.25;;;16.40;99.90;;;15.43;100.00;100466.81;9894789;29;96752;-90
2023/09/17 05:50:24;;;;;;;4.30;2.60;;;16.60;99.90;;;15.66;100.00;100474.66;9909194;29;98090;-91
2023/09/17 05:55:29;;;;;;;4.15;3.03;;;16.90;99.90;;;15.86;100.00;100465.94;9911977;29;96489;-90
2023/09/17 06:00:33;;;;;;;5.10;3.10;;;17.10;99.90;;;16.11;100.00;100469.81;9900768;29;97049;-90
2023/09/17 06:05:37;;;;;;;4.25;2.80;;;17.30;99.90;;;16.35;100.00;100471.16;9867287;29;96998;-88
2023/09/17 06:10:40;;;;;;;4.55;2.85;;;17.60;99.90;;;16.59;100.00;100469.81;9872540;29;97198;-90
2023/09/17 06:15:45;;;;;;;3.58;2.55;;;17.80;99.90;;;16.82;100.00;100466.84;9898164;29;98295;-90
2023/09/17 06:20:54;;;;;;;3.35;2.28;;;18.00;99.90;;;17.05;100.00;100474.56;9902975;29;97158;-91
2023/09/17 06:25:59;;;;;;;4.00;2.78;;;18.20;99.90;;;17.24;100.00;100460.31;9880702;29;97668;-91
2023/09/17 06:31:03;;;;;;;4.32;2.60;;;18.50;99.90;;;17.44;100.00;100470.25;9898510;29;97588;-91
2023/09/17 06:36:06;;;;;;;4.38;2.50;;;18.70;99.90;;;17.64;100.00;100471.91;9879487;29;96779;-91
2023/09/17 06:41:10;;;;;;;4.00;2.50;;;18.90;99.90;;;17.88;100.00;100472.34;9899497;29;98026;-92
2023/09/17 06:46:14;;;;;;;3.42;1.88;;;19.10;99.90;;;18.08;100.00;100475.00;9897433;29;98265;-91
2023/09/17 06:51:18;;;;;;;3.00;2.03;;;19.30;99.90;;;18.28;100.00;100473.06;9893799;29;98409;-92
2023/09/17 06:56:25;;;;;;;2.80;1.90;;;19.50;99.90;;;18.50;100.00;100473.63;9880732;29;96748;-90
2023/09/17 07:01:29;;;;;;;3.67;2.75;;;19.80;99.90;;;18.72;100.00;100479.56;9882628;29;98614;-91
2023/09/17 07:06:33;;;;;;;3.58;1.85;;;20.00;99.90;;;18.90;100.00;100487.78;9891497;29;98828;-89
2023/09/17 07:11:37;;;;;;;3.22;2.22;;;20.20;99.90;;;19.11;100.00;100478.53;9886318;29;97703;-90
2023/09/17 07:16:40;;;;;;;3.55;2.40;;;20.40;99.90;;;19.33;99.59;100486.25;9870510;29;98176;-90
2023/09/17 07:21:44;;;;;;;3.55;2.17;;;20.60;99.90;;;19.56;97.20;100472.19;9889173;29;97288;-91
2023/09/17 07:26:48;;;;;;;3.35;2.10;;;20.90;99.90;;;19.72;94.00;100475.19;9881954;29;96646;-91
2023/09/17 07:31:51;;;;;;;4.25;2.55;;;21.00;99.90;;;19.92;93.32;100471.50;9896985;29;98003;-91
2023/09/17 07:36:55;;;;;;;3.50;2.00;;;21.30;99.90;;;20.11;90.48;100480.44;9894276;29;97116;-91
2023/09/17 07:41:59;;;;;;;2.55;1.85;;;21.40;99.90;;;20.32;90.07;100475.41;9908993;29;96704;-91
2023/09/17 07:47:03;;;;;;;3.75;1.92;;;21.60;99.90;;;20.52;88.32;100477.91;9892785;29;99036;-92
2023/09/17 07:52:06;;;;;;;3.30;1.60;;;21.80;99.90;;;20.73;86.41;100471.19;9871426;29;97541;-92
2023/09/17 07:57:12;;;;;;;3.20;1.98;;;22.10;99.90;;;20.99;86.40;100477.28;9884555;29;97840;-90
2023/09/17 08:02:16;;;;;;;2.80;1.80;;;22.30;99.90;;;21.24;83.54;100475.28;9881949;29;97752;-90
2023/09/17 08:07:20;;;;;;;2.05;1.50;;;22.60;99.90;;;21.52;82.30;100479.22;9882422;29;96537;-91
2023/09/17 08:12:24;;;;;;;2.72;1.73;;;22.80;99.60;;;21.73;80.40;100483.25;9914982;29;97881;-91
2023/09/17 08:17:28;;;;;;;2.65;1.60;;;23.00;99.00;;;21.89;79.40;100479.81;9876958;29;98495;-90
2023/09/17 08:22:32;;;;;;;2.03;1.58;;;23.20;98.50;;;22.04;77.52;100485.59;9875455;29;96747;-91
2023/09/17 08:27:36;;;;;;;2.95;1.77;;;23.40;97.90;;;22.30;77.36;100481.59;9886530;29;98939;-93
2023/09/17 08:32:44;;;;;;;2.15;1.70;;;23.60;97.50;;;22.59;76.24;100479.75;9889752;29;96691;-94
2023/09/17 08:37:49;;;;;;;2.55;1.55;;;23.80;97.20;;;22.89;74.87;100466.03;9859935;29;97548;-94
2023/09/17 08:42:54;;;;;;;2.88;2.13;;;24.10;96.60;;;23.14;73.17;100476.50;9877780;29;96672;-93
2023/09/17 08:47:58;;;;;;;3.38;1.90;;;24.40;96.00;;;23.41;72.07;100465.84;9867563;29;96763;-94
2023/09/17 08:53:07;;;;;;;3.17;2.05;;;24.60;95.40;;;23.67;70.36;100463.56;9909558;29;97466;-90
2023/09/17 08:58:19;;;;;;;3.03;2.40;;;24.80;94.70;;;23.73;66.89;100463.41;9875653;29;97221;-93
2023/09/17 09:03:27;;;;;;;2.05;1.65;;;25.10;93.60;;;23.88;67.55;100462.81;9874365;29;96852;-93
2023/09/17 09:08:33;;;;;;;3.17;2.00;;;25.10;93.60;;;23.75;66.40;100455.03;9889582;29;96654;-94
2023/09/17 09:13:41;;;;;;;2.95;1.95;;;25.10;93.00;;;23.78;68.27;100454.53;9874167;29;97466;-91
2023/09/17 09:18:45;;;;;;;2.72;1.75;;;25.10;93.10;;;24.06;68.16;100455.47;9865337;29;97298;-93
2023/09/17 09:23:49;;;;;;;3.15;1.67;;;25.30;92.90;;;24.29;66.02;100450.63;9864767;29;97129;-93
2023/09/17 09:28:53;;;;;;;2.90;2.13;;;25.50;92.30;;;24.37;64.70;100448.56;9872685;29;97462;-92
2023/09/17 09:34:01;;;;;;;2.47;1.73;;;25.70;92.00;;;24.47;64.66;100445.97;9891819;29;96945;-93
2023/09/17 09:39:05;;;;;;;2.88;2.15;;;25.80;91.80;;;24.50;64.24;100434.59;9888599;29;98459;-93
2023/09/17 09:44:08;;;;;;;2.72;2.17;;;25.80;91.30;;;24.49;63.28;100441.13;9866564;29;97447;-92
2023/09/17 09:49:12;;;;;;;3.15;2.00;;;25.80;90.80;;;24.66;63.14;100431.00;9897463;29;96672;-92
2023/09/17 09:54:16;;;;;;;2.78;2.28;;;26.00;90.80;;;25.08;63.48;100438.50;9876200;29;98704;-93
2023/09/17 09:59:21;;;;;;;3.60;2.95;;;26.50;90.80;;;25.58;61.20;100437.28;9877515;29;98759;-92
2023/09/17 10:04:25;;;;;;;5.53;3.25;;;26.90;89.60;;;25.96;58.61;100436.19;9864601;29;98203;-94
2023/09/17 10:09:29;;;;;;;4.25;3.40;;;27.20;87.80;;;26.15;58.24;100431.13;9877646;29;96599;-91
2023/09/17 10:14:38;;;;;;;4.25;3.25;;;27.40;87.20;;;26.29;57.89;100428.72;9879784;29;97402;-92
2023/09/17 10:19:42;;;;;;;5.13;4.13;;;27.50;86.50;;;26.43;57.05;100419.00;9878514;29;98161;-92
2023/09/17 10:24:47;;;;;;;5.50;3.33;;;27.60;85.50;;;26.55;55.96;100399.69;9897299;29;96694;-92
2023/09/17 10:29:52;;;;;;;4.95;3.55;;;27.80;84.80;;;26.64;55.70;100417.16;9880197;29;96693;-91
2023/09/17 10:34:57;;;;;;;5.25;3.47;;;27.90;83.30;;;26.67;54.73;100411.16;9877804;29;96786;-93
2023/09/17 10:40:01;;;;;;;6.30;3.70;;;27.90;82.60;;;26.57;55.32;100408.41;9891556;29;98660;-93
2023/09/17 10:45:08;;;;;;;4.60;3.55;;;27.90;82.40;;;26.41;55.68;100404.84;9875024;29;97779;-93
2023/09/17 10:50:13;;;;;;;5.75;4.28;;;27.70;82.80;;;26.57;55.26;100403.78;9911090;29;97688;-93
2023/09/17 10:55:17;;;;;;;5.28;4.30;;;27.80;82.20;;;26.51;54.45;100404.88;9899293;29;96691;-93
2023/09/17 11:00:23;;;;;;;6.55;4.45;;;27.80;81.80;;;26.20;55.98;100403.88;9889892;29;96738;-92
2023/09/17 11:05:31;;;;;;;7.18;4.38;;;27.50;82.20;;;26.15;55.71;100393.81;9882272;29;98278;-92
2023/09/17 11:10:41;;;;;;;6.72;4.28;;;27.50;81.90;;;26.08;56.26;100390.50;9891254;29;96499;-92
2023/09/17 11:15:47;;;;;;;5.75;4.40;;;27.40;82.00;;;26.07;55.97;100383.41;9884773;29;96768;-93
2023/09/17 11:21:06;;;;;;;6.50;4.15;;;27.40;82.60;;;26.47;55.93;100370.25;9893622;29;96652;-92
2023/09/17 11:26:25;;;;;;;5.90;4.22;;;27.70;83.00;;;26.66;54.45;100368.63;9879352;29;96627;-94
2023/09/17 11:31:29;;;;;;;5.72;4.22;;;27.90;81.50;;;26.68;53.44;100374.63;9906393;29;97556;-93
2023/09/17 11:36:34;;;;;;;7.07;3.90;;;28.00;80.20;;;26.75;53.47;100383.38;9892144;29;97015;-93
2023/09/17 11:41:51;;;;;;;6.05;4.10;;;28.00;80.40;;;27.04;53.78;100371.94;9907538;29;96635;-92
2023/09/17 11:46:55;;;;;;;5.13;4.07;;;28.10;80.20;;;27.48;52.31;100362.13;9872664;29;97578;-93
2023/09/17 11:51:59;;;;;;;5.88;4.90;;;28.50;79.50;;;27.85;50.95;100363.69;9906563;29;97512;-94
2023/09/17 11:57:03;;;;;;;4.53;3.72;;;29.00;78.50;;;27.82;50.65;100356.03;9876594;29;96676;-93
2023/09/17 12:02:08;;;;;;;5.47;4.10;;;29.00;77.60;;;28.02;49.63;100357.88;9876023;29;96757;-93
2023/09/17 12:07:12;;;;;;;5.50;4.03;;;29.20;77.00;;;28.11;48.30;100350.72;9874333;29;96725;-92
2023/09/17 12:12:20;;;;;;;6.13;4.47;;;29.40;76.00;;;28.37;48.37;100353.34;9881610;29;96794;-93
2023/09/17 12:17:24;;;;;;;5.00;4.30;;;29.50;75.70;;;28.62;47.30;100339.53;9880756;29;96779;-93
2023/09/17 12:22:28;;;;;;;5.60;4.43;;;29.70;74.50;;;28.67;46.73;100342.25;9915055;29;96530;-94
2023/09/17 12:27:44;;;;;;;6.57;3.83;;;29.80;73.40;;;28.57;47.02;100344.22;9880442;29;97049;-93
2023/09/17 12:32:48;;;;;;;5.90;3.95;;;29.70;73.50;;;28.49;46.69;100337.44;9874677;29;98331;-93
2023/09/17 12:37:54;;;;;;;5.65;4.28;;;29.60;72.80;;;28.21;46.17;100323.38;9875585;29;96828;-93
2023/09/17 12:42:57;;;;;;;4.60;3.80;;;29.40;72.30;;;28.04;46.36;100325.63;9908618;29;96609;-94
2023/09/17 12:48:01;;;;;;;4.13;3.38;;;29.20;72.10;;;27.86;47.00;100324.34;9899844;29;96735;-95
2023/09/17 12:53:04;;;;;;;4.80;3.72;;;29.00;72.50;;;27.78;47.98;100332.31;9864766;29;96794;-93
2023/09/17 12:58:08;;;;;;;6.90;4.68;;;28.90;73.00;;;27.76;47.18;100332.56;9875481;29;98388;-94
2023/09/17 13:03:14;;;;;;;5.68;4.30;;;28.90;72.50;;;27.67;47.61;100323.31;9893377;29;98427;-92
2023/09/17 13:08:18;;;;;;;6.28;4.63;;;28.80;72.40;;;27.39;47.58;100320.09;9881345;29;96597;-93
2023/09/17 13:13:22;;;;;;;5.53;3.97;;;28.50;72.30;;;27.25;48.31;100313.59;9872622;29;96757;-93
2023/09/17 13:18:26;;;;;;;5.35;3.92;;;28.40;73.00;;;27.24;48.53;100309.22;9858398;29;97613;-92
2023/09/17 13:23:30;;;;;;;6.20;4.43;;;28.40;73.10;;;27.31;47.25;100304.31;9866587;29;98202;-96
2023/09/17 13:28:37;;;;;;;5.70;4.50;;;28.40;72.50;;;27.31;47.94;100308.94;9871599;29;96750;-93
2023/09/17 13:33:41;;;;;;;6.22;4.97;;;28.40;72.40;;;27.23;47.74;100306.75;9872677;29;96654;-93
2023/09/17 13:38:45;;;;;;;6.43;5.25;;;28.30;72.40;;;27.12;48.81;100306.78;9905735;29;96818;-93
2023/09/17 13:43:48;;;;;;;5.38;4.65;;;28.20;72.80;;;27.09;49.29;100295.59;9875157;29;96683;-92
2023/09/17 13:48:52;;;;;;;5.68;4.45;;;28.20;73.20;;;27.10;48.90;100294.50;9919590;29;98915;-92
2023/09/17 13:53:56;;;;;;;6.60;4.25;;;28.20;73.30;;;27.12;49.26;100297.78;9877110;29;96874;-94
2023/09/17 13:59:00;;;;;;;6.32;5.38;;;28.10;73.30;;;27.17;48.84;100295.88;9906004;29;96776;-91
2023/09/17 14:04:03;;;;;;;7.47;5.55;;;28.30;73.10;;;27.29;48.20;100292.00;9866797;29;96894;-91
2023/09/17 14:09:09;;;;;;;7.25;4.80;;;28.50;72.30;;;27.32;48.02;100295.00;9867115;29;96688;-92
2023/09/17 14:14:12;;;;;;;6.82;5.13;;;28.50;72.20;;;27.26;47.48;100285.22;9862893;29;96668;-90
2023/09/17 14:19:19;;;;;;;6.47;4.40;;;28.40;71.70;;;27.25;47.80;100288.22;9900849;29;96717;-92
2023/09/17 14:24:22;;;;;;;5.68;4.50;;;28.30;72.00;;;27.21;47.84;100279.75;9897017;29;96498;-93
2023/09/17 14:29:26;;;;;;;6.75;5.05;;;28.40;72.00;;;27.36;47.26;100279.75;9891622;29;96991;-93
2023/09/17 14:34:30;;;;;;;6.10;4.25;;;28.60;71.50;;;27.49;46.71;100272.88;9870776;29;98351;-91
2023/09/17 14:39:33;;;;;;;6.30;4.80;;;28.80;70.90;;;27.62;45.62;100264.09;9900418;29;98403;-92
2023/09/17 14:44:37;;;;;;;6.05;4.50;;;29.00;70.10;;;27.71;45.57;100269.81;9901482;29;96720;-93
2023/09/17 14:49:41;;;;;;;6.55;5.50;;;29.10;69.80;;;27.83;45.77;100266.75;9870611;29;97102;-91
2023/09/17 14:54:46;;;;;;;6.30;4.63;;;29.30;69.20;;;27.85;45.68;100259.91;9876899;29;97700;-93
2023/09/17 14:59:50;;;;;;;7.45;5.38;;;29.30;68.70;;;27.85;46.16;100259.09;9896145;29;97837;-92
2023/09/17 15:04:55;;;;;;;6.63;5.18;;;29.30;69.10;;;27.89;45.29;100265.63;9873710;29;97161;-92
2023/09/17 15:09:59;;;;;;;6.65;5.75;;;29.30;68.80;;;27.95;45.64;100265.34;9912682;29;97508;-93
2023/09/17 15:15:04;;;;;;;7.45;5.03;;;29.40;69.20;;;28.03;45.48;100250.25;9881395;29;96712;-93
2023/09/17 15:20:08;;;;;;;5.78;4.50;;;29.60;68.50;;;28.35;45.53;100249.78;9906169;29;96840;-92
2023/09/17 15:25:12;;;;;;;5.72;4.78;;;30.10;68.70;;;28.59;45.15;100252.63;9918692;29;96775;-92
2023/09/17 15:30:16;;;;;;;5.55;4.10;;;30.40;67.90;;;28.82;45.19;100253.78;9895244;29;96612;-92
2023/09/17 15:35:23;;;;;;;6.43;4.55;;;30.70;67.90;;;28.94;45.17;100254.25;9899873;29;96751;-92
2023/09/17 15:40:27;;;;;;;5.65;4.25;;;30.90;67.70;;;29.03;44.97;100260.72;9910643;29;96771;-92
2023/09/17 15:45:31;;;;;;;6.22;4.78;;;30.90;67.50;;;28.94;44.81;100253.44;9876737;29;97014;-93
2023/09/17 15:50:35;;;;;;;5.35;4.50;;;30.80;67.90;;;28.73;44.87;100237.19;9876406;29;96863;-93
2023/09/17 15:55:39;;;;;;;7.18;4.93;;;30.40;67.30;;;28.43;46.46;100245.63;9893300;29;97579;-94
2023/09/17 16:00:42;;;;;;;6.43;4.40;;;30.00;67.90;;;28.03;46.08;100250.25;9877682;29;96672;-94
2023/09/17 16:05:46;;;;;;;6.35;4.85;;;29.40;68.40;;;27.50;47.13;100251.84;9877985;29;97451;-92
2023/09/17 16:10:50;;;;;;;5.85;4.70;;;28.90;68.80;;;27.14;48.54;100246.50;9860001;29;99007;-92
2023/09/17 16:15:54;;;;;;;6.25;4.93;;;28.50;69.80;;;26.75;50.22;100255.25;9873547;29;98200;-93
2023/09/17 16:20:58;;;;;;;11.32;5.22;;;28.00;70.70;;;26.37;52.03;100268.28;9886545;29;97359;-92
2023/09/17 16:26:02;;;;;;;6.88;4.93;;;27.50;72.00;;;25.99;52.87;100261.41;9867249;29;97918;-92
2023/09/17 16:31:06;;;;;;;9.25;6.43;;;27.10;73.10;;;25.64;54.14;100272.97;9874682;29;98358;-91
2023/09/17 16:36:09;;;;;;;9.43;5.45;;;26.70;74.10;;;25.29;56.16;100271.69;9916100;29;97783;-91
2023/09/17 16:41:13;;;;;;;7.57;5.45;;;26.30;75.30;;;24.91;57.86;100277.41;9892526;29;96498;-91
2023/09/17 16:46:16;;;;;;;7.78;5.85;;;25.90;76.40;;;24.53;58.81;100277.38;9885808;29;98921;-92
2023/09/17 16:51:20;;;;;;;8.20;5.22;;;25.60;77.40;;;24.20;59.68;100267.50;9881561;29;96701;-91
2023/09/17 16:56:24;;;;;;;9.38;6.18;;;25.30;78.20;;;23.92;61.18;100275.88;9911168;29;96666;-92
2023/09/17 17:01:32;;;;;;;7.80;5.93;;;25.00;79.00;;;23.64;61.90;100283.16;9883281;29;96785;-91
2023/09/17 17:06:36;;;;;;;7.18;4.78;;;24.70;79.70;;;23.39;61.88;100288.19;9905876;29;97194;-90
2023/09/17 17:11:40;;;;;;;7.55;5.50;;;24.50;80.00;;;23.21;62.52;100294.72;9869889;29;96624;-91
2023/09/17 17:16:44;;;;;;;7.43;5.57;;;24.30;80.30;;;23.00;63.02;100296.31;9855580;29;98411;-91
2023/09/17 17:21:48;;;;;;;6.95;5.22;;;24.10;80.80;;;22.81;63.95;100298.41;9917370;29;97216;-91
2023/09/17 17:26:51;;;;;;;7.70;5.15;;;23.90;81.40;;;22.62;64.43;100305.94;9886526;29;99782;-91
2023/09/17 17:31:57;;;;;;;7.72;5.80;;;23.70;81.90;;;22.49;65.36;100310.84;9875634;29;96758;-92
2023/09/17 17:37:03;;;;;;;8.40;5.10;;;23.60;82.50;;;22.27;66.61;100310.72;9876279;29;96729;-92
2023/09/17 17:42:06;;;;;;;11.23;5.68;;;23.40;83.40;;;21.97;67.87;100314.44;9876682;29;96904;-92
2023/09/17 17:47:10;;;;;;;10.52;7.18;;;23.10;84.20;;;21.75;68.57;100313.44;9878541;29;96722;-93
2023/09/17 17:52:14;;;;;;;9.43;7.00;;;22.80;84.90;;;21.55;69.56;100313.84;9873386;29;97669;-92
2023/09/17 17:57:22;;;;;;;13.73;6.30;;;22.60;85.70;;;21.37;69.97;100318.31;9871972;29;96749;-92
2023/09/17 18:02:26;;;;;;;10.85;6.20;;;22.50;86.00;;;21.26;71.36;100323.69;9879384;29;96798;-91
2023/09/17 18:07:31;;;;;;;8.98;6.15;;;22.30;86.90;;;21.08;72.19;100338.94;9867268;29;96551;-92
2023/09/17 18:12:35;;;;;;;9.77;6.68;;;22.10;87.50;;;20.94;73.41;100339.41;9905725;29;98308;-92
2023/09/17 18:17:38;;;;;;;9.60;6.45;;;22.00;88.40;;;20.83;73.54;100347.25;9902838;29;96701;-92
2023/09/17 18:22:42;;;;;;;10.55;7.07;;;21.90;88.70;;;20.74;74.11;100351.31;9905249;29;97430;-92
2023/09/17 18:27:49;;;;;;;10.82;6.70;;;21.80;89.10;;;20.61;74.94;100354.22;9874362;29;96720;-93
2023/09/17 18:32:52;;;;;;;9.18;6.78;;;21.70;89.70;;;20.54;75.24;100358.91;9893965;29;98140;-93
2023/09/17 18:37:56;;;;;;;12.07;8.00;;;21.60;90.10;;;20.41;76.81;100364.47;9875051;29;97394;-94
2023/09/17 18:43:00;;;;;;;9.77;6.50;;;21.50;90.40;;;20.32;76.75;100366.63;9882653;29;96725;-92
2023/09/17 18:48:04;;;;;;;9.25;7.20;;;21.40;90.50;;;20.26;77.57;100370.25;9870955;29;97244;-93
2023/09/17 18:53:09;;;;;;;11.75;6.95;;;21.30;90.80;;;20.18;77.40;100387.56;9906502;29;96689;-93
2023/09/17 18:58:12;;;;;;;9.02;6.32;;;21.30;90.80;;;20.14;77.87;100394.44;9918887;29;96601;-92
2023/09/17 19:03:16;;;;;;;10.45;7.10;;;21.20;91.00;;;20.09;78.99;100401.56;9869403;29;96762;-93
2023/09/17 19:08:20;;;;;;;9.93;6.75;;;21.20;91.20;;;20.00;79.93;100401.06;9878457;29;96783;-94
2023/09/17 19:13:24;;;;;;;8.77;6.47;;;21.10;91.90;;;19.93;80.23;100398.44;9906922;29;96690;-93
2023/09/17 19:18:27;;;;;;;10.88;6.90;;;21.00;91.70;;;19.90;80.84;100390.78;9915016;29;96674;-93
2023/09/17 19:23:32;;;;;;;9.57;6.30;;;21.00;91.90;;;19.83;80.67;100392.75;9875446;29;98314;-93
2023/09/17 19:28:37;;;;;;;9.23;6.78;;;21.00;92.10;;;19.72;81.12;100390.78;9877987;29;97236;-92
2023/09/17 19:33:41;;;;;;;10.43;6.78;;;20.90;92.30;;;19.63;82.08;100394.81;9869051;29;96695;-93
2023/09/17 19:38:45;;;;;;;7.68;5.78;;;20.80;92.40;;;19.64;82.36;100401.84;9908525;29;96651;-93
2023/09/17 19:43:49;;;;;;;8.48;5.60;;;20.80;92.60;;;19.61;82.07;100397.75;9880161;29;96673;-94
2023/09/17 19:48:53;;;;;;;12.15;7.55;;;20.80;92.70;;;19.68;81.96;100397.69;9885901;29;96793;-94
2023/09/17 19:53:57;;;;;;;9.73;7.07;;;20.80;92.70;;;19.67;82.18;100393.31;9874612;29;96857;-93
2023/09/17 19:59:01;;;;;;;8.55;5.80;;;20.80;92.80;;;19.58;82.72;100384.69;9869931;29;96655;-93
2023/09/17 20:04:05;;;;;;;9.90;6.70;;;20.70;93.00;;;19.55;82.80;100389.66;9889072;29;96721;-94
2023/09/17 20:09:12;;;;;;;9.73;6.53;;;20.60;93.10;;;19.48;83.03;100387.84;9886278;29;96659;-94
2023/09/17 20:14:19;;;;;;;;;;;20.60;93.40;;;19.44;83.70;100388.53;9887586;29;96811;-93
2023/09/17 20:19:22;;;;;;;10.63;7.38;;;20.50;94.10;;;19.31;84.04;100389.50;9884329;29;98455;-93
2023/09/17 20:24:26;;;;;;;11.77;7.97;;;20.40;93.70;;;19.23;84.40;100389.75;9867887;29;96670;-94
2023/09/17 20:29:30;;;;;;;10.15;6.53;;;20.30;93.90;;;19.14;84.90;100391.06;9867877;29;98671;-93
2023/09/17 20:34:34;;;;;;;10.57;7.07;;;20.20;94.20;;;19.04;85.52;100390.72;9892799;29;98430;-94
2023/09/17 20:39:37;;;;;;;9.70;6.47;;;20.10;94.40;;;18.94;86.20;100386.63;9891131;29;98408;-93
2023/09/17 20:44:41;;;;;;;9.52;6.00;;;20.00;94.60;;;18.83;86.96;100394.59;9880240;29;96709;-94
2023/09/17 20:49:44;;;;;;;12.05;7.00;;;20.00;95.00;;;18.81;87.53;100391.31;9896030;29;97073;-94
2023/09/17 20:54:48;;;;;;;13.15;7.70;;;19.90;95.20;;;18.76;88.02;100389.25;9902532;29;96710;-92
2023/09/17 20:59:52;;;;;;;7.93;5.78;;;19.80;95.50;;;18.68;88.60;100381.44;9901180;29;97502;-93
2023/09/17 21:04:57;;;;;;;8.95;6.53;;;19.80;95.70;;;18.63;89.07;100394.69;9917039;29;97261;-91